RKSI/ICN METAR and TAF weather

Enter ICAO airport designator
Station Type Date Time Source
RKSI METAR 2019/08/25 20:00 UTC NOAA

RKSI 252000Z 16003KT 130V200 CAVOK 22/19 Q1012 NOSIG


Station Type Date Time Source
RKSI Decoded METAR 2019/08/25 20:00 UTC NOAA

Station name not available
Aug 25, 2019 - 04:00 PM EDT / 2019.08.25 2000 UTC
Wind: from the SSE (160 degrees) at 3 MPH (3 KT) (direction variable):0
Visibility: greater than 7 mile(s):0
Temperature: 71 F (22 C)
Dew Point: 66 F (19 C)
Relative Humidity: 83%
Pressure (altimeter): 29.88 in. Hg (1012 hPa)
ob: RKSI 252000Z 16003KT 130V200 CAVOK 22/19 Q1012 NOSIG
cycle: 20

Station Type Date Time Source
RKSI TAF 2019/08/25 18:06 UTC NOAA

TAF RKSI 251700Z 2518/2624 25006KT 9999 FEW030 TN22/2521Z TX29/2605Z TN22/2621Z
BECMG 2522/2523 15006KT
BECMG 2603/2604 31007KT
BECMG 2613/2614 07006KT

Example: see airport list